createdAt,value
2017-12-06T00:00:19.813Z,1009.0
2017-12-06T00:01:20.473Z,1009.0
2017-12-06T00:02:21.133Z,1008.9
2017-12-06T00:03:21.792Z,1008.9
2017-12-06T00:04:22.453Z,1008.9
2017-12-06T00:05:23.115Z,1008.9
2017-12-06T00:06:23.776Z,1008.9
2017-12-06T00:07:24.435Z,1008.9
2017-12-06T00:08:25.097Z,1008.9
2017-12-06T00:09:25.756Z,1008.9
2017-12-06T00:10:26.416Z,1008.9
2017-12-06T00:11:27.076Z,1008.8
2017-12-06T00:12:27.737Z,1008.8
2017-12-06T00:13:28.397Z,1008.8
2017-12-06T00:14:29.057Z,1008.9
2017-12-06T00:15:29.717Z,1008.8
2017-12-06T00:16:30.377Z,1008.8
2017-12-06T00:17:31.037Z,1008.9
2017-12-06T00:18:31.699Z,1008.9
2017-12-06T00:19:32.399Z,1008.9
2017-12-06T00:20:33.018Z,1008.9
2017-12-06T00:21:33.679Z,1008.9
2017-12-06T00:22:34.340Z,1009.0
2017-12-06T00:23:35.001Z,1008.9
2017-12-06T00:24:35.662Z,1008.9
2017-12-06T00:25:36.321Z,1009.0
2017-12-06T00:26:36.982Z,1008.9
2017-12-06T00:27:37.679Z,1008.9
2017-12-06T00:28:38.338Z,1009.0
2017-12-06T00:29:38.999Z,1009.0
2017-12-06T00:30:39.660Z,1008.9
2017-12-06T00:31:40.323Z,1009.0
2017-12-06T00:32:40.983Z,1008.9
2017-12-06T00:33:41.643Z,1009.0
2017-12-06T00:34:42.304Z,1009.0
2017-12-06T00:35:42.965Z,1009.0
2017-12-06T00:36:43.627Z,1009.0
2017-12-06T00:37:44.287Z,1009.0
2017-12-06T00:38:44.949Z,1009.0
2017-12-06T00:39:45.609Z,1008.9
2017-12-06T00:40:46.304Z,1009.0
2017-12-06T00:41:46.966Z,1009.0
2017-12-06T00:42:47.628Z,1009.1
2017-12-06T00:43:48.325Z,1009.0
2017-12-06T00:44:48.985Z,1009.0
2017-12-06T00:45:49.645Z,1009.0
2017-12-06T00:46:50.306Z,1008.9
2017-12-06T00:47:50.967Z,1008.9
2017-12-06T00:48:51.627Z,1009.0
2017-12-06T00:49:52.286Z,1009.0
2017-12-06T00:50:52.945Z,1009.0
2017-12-06T00:51:53.611Z,1008.9
2017-12-06T00:52:54.262Z,1009.0
2017-12-06T00:53:54.921Z,1008.9
2017-12-06T00:54:55.600Z,1008.9
2017-12-06T00:55:56.241Z,1008.9
2017-12-06T00:56:56.935Z,1008.9
2017-12-06T00:57:57.594Z,1008.9
2017-12-06T00:58:58.254Z,1008.9
2017-12-06T00:59:58.915Z,1008.9
2017-12-06T01:00:59.576Z,1008.9
2017-12-06T01:02:00.236Z,1008.9
2017-12-06T01:03:00.897Z,1008.8
2017-12-06T01:04:01.558Z,1008.8
2017-12-06T01:05:02.252Z,1008.9
2017-12-06T01:06:02.911Z,1008.8
2017-12-06T01:07:03.571Z,1008.8
2017-12-06T01:08:04.230Z,1008.8
2017-12-06T01:09:04.891Z,1008.8
2017-12-06T01:10:05.555Z,1008.8
2017-12-06T01:11:06.210Z,1008.7
2017-12-06T01:12:06.871Z,1008.8
2017-12-06T01:13:07.532Z,1008.8
2017-12-06T01:14:08.193Z,1008.8
2017-12-06T01:15:08.852Z,1008.8
2017-12-06T01:16:09.512Z,1008.8
2017-12-06T01:17:10.171Z,1008.8
2017-12-06T01:18:10.832Z,1008.8
2017-12-06T01:19:11.493Z,1008.8
2017-12-06T01:20:12.152Z,1008.9
2017-12-06T01:21:12.813Z,1008.8
2017-12-06T01:22:13.474Z,1008.8
2017-12-06T01:23:14.134Z,1008.8
2017-12-06T01:24:14.794Z,1008.8
2017-12-06T01:25:15.456Z,1008.8
2017-12-06T01:26:16.116Z,1008.8
2017-12-06T01:27:16.775Z,1008.8
2017-12-06T01:28:17.436Z,1008.8
2017-12-06T01:29:18.096Z,1008.8
2017-12-06T01:30:18.756Z,1008.8
2017-12-06T01:31:19.417Z,1008.8
2017-12-06T01:32:20.077Z,1008.8
2017-12-06T01:33:20.737Z,1008.8
2017-12-06T01:34:21.398Z,1008.8
2017-12-06T01:35:22.058Z,1008.9
2017-12-06T01:36:22.719Z,1008.8
2017-12-06T01:39:53.463Z,1008.8
2017-12-06T01:40:54.128Z,1008.9
2017-12-06T01:41:54.790Z,1008.9
2017-12-06T01:42:55.452Z,1008.8
2017-12-06T01:43:56.112Z,1008.8
2017-12-06T01:44:56.772Z,1008.9
2017-12-06T01:45:57.437Z,1008.8
2017-12-06T01:46:58.092Z,1008.8
2017-12-06T01:47:58.753Z,1008.9
2017-12-06T01:48:59.412Z,1008.8
2017-12-06T01:50:00.073Z,1008.8
2017-12-06T01:51:00.735Z,1008.8
2017-12-06T01:52:01.396Z,1008.8
2017-12-06T01:53:02.056Z,1008.8
2017-12-06T01:54:02.716Z,1008.8
2017-12-06T01:55:03.379Z,1008.8
2017-12-06T01:56:04.036Z,1008.8
2017-12-06T01:57:04.696Z,1008.7
2017-12-06T01:58:05.356Z,1008.8
2017-12-06T01:59:06.017Z,1008.8
2017-12-06T02:00:06.678Z,1008.8
2017-12-06T02:01:07.338Z,1008.8
2017-12-06T02:02:07.998Z,1008.8
2017-12-06T02:03:08.657Z,1008.8
2017-12-06T02:04:09.319Z,1008.8
2017-12-06T02:05:09.978Z,1008.7
2017-12-06T02:06:10.644Z,1008.8
2017-12-06T02:07:11.330Z,1008.8
2017-12-06T02:08:11.993Z,1008.8
2017-12-06T02:09:12.655Z,1008.7
2017-12-06T02:10:13.318Z,1008.7
2017-12-06T02:11:13.980Z,1008.7
2017-12-06T02:12:14.641Z,1008.7
2017-12-06T02:13:15.302Z,1008.7
2017-12-06T02:14:15.962Z,1008.6
2017-12-06T02:15:16.622Z,1008.6
2017-12-06T02:16:17.283Z,1008.7
2017-12-06T02:17:17.945Z,1008.6
2017-12-06T02:18:18.607Z,1008.7
2017-12-06T02:19:19.266Z,1008.6
2017-12-06T02:20:19.928Z,1008.7
2017-12-06T02:21:20.587Z,1008.6
2017-12-06T02:22:21.285Z,1008.7
2017-12-06T02:23:21.947Z,1008.6
2017-12-06T02:24:22.607Z,1008.6
2017-12-06T02:25:23.268Z,1008.6
2017-12-06T02:26:23.927Z,1008.6
2017-12-06T02:27:24.590Z,1008.6
2017-12-06T02:28:25.250Z,1008.6
2017-12-06T02:29:25.911Z,1008.6
2017-12-06T02:30:26.570Z,1008.6
2017-12-06T02:31:27.231Z,1008.6
2017-12-06T02:32:27.891Z,1008.6
2017-12-06T02:33:28.552Z,1008.5
2017-12-06T02:34:29.210Z,1008.5
2017-12-06T02:35:29.911Z,1008.5
2017-12-06T02:36:30.573Z,1008.5
2017-12-06T02:37:31.241Z,1008.5
2017-12-06T02:38:31.896Z,1008.5
2017-12-06T02:39:32.556Z,1008.5
2017-12-06T02:40:33.216Z,1008.5
2017-12-06T02:41:33.876Z,1008.5
2017-12-06T02:42:34.538Z,1008.4
2017-12-06T02:43:35.200Z,1008.4
2017-12-06T02:44:35.862Z,1008.4
2017-12-06T02:45:36.522Z,1008.4
2017-12-06T02:46:37.183Z,1008.4
2017-12-06T02:47:37.843Z,1008.5
2017-12-06T02:48:38.502Z,1008.4
2017-12-06T02:49:39.163Z,1008.4
2017-12-06T02:50:39.825Z,1008.5
2017-12-06T02:51:40.484Z,1008.4
2017-12-06T02:52:41.144Z,1008.5
2017-12-06T02:53:41.805Z,1008.5
2017-12-06T02:54:42.464Z,1008.5
2017-12-06T02:55:43.124Z,1008.5
2017-12-06T02:56:43.785Z,1008.5
2017-12-06T02:57:44.444Z,1008.5
2017-12-06T02:58:45.105Z,1008.5
2017-12-06T02:59:45.764Z,1008.4
2017-12-06T03:00:46.474Z,1008.4
2017-12-06T03:01:47.136Z,1008.4
2017-12-06T03:02:47.798Z,1008.4
2017-12-06T03:03:48.495Z,1008.4
2017-12-06T03:04:49.156Z,1008.3
2017-12-06T03:05:49.824Z,1008.4
2017-12-06T03:06:50.522Z,1008.3
2017-12-06T03:07:51.182Z,1008.4
2017-12-06T03:08:51.849Z,1008.3
2017-12-06T03:09:52.505Z,1008.3
2017-12-06T03:10:53.217Z,1008.4
2017-12-06T03:11:53.878Z,1008.3
2017-12-06T03:12:54.539Z,1008.3
2017-12-06T03:13:55.199Z,1008.3
2017-12-06T03:14:55.859Z,1008.3
2017-12-06T03:15:56.521Z,1008.3
2017-12-06T03:16:57.180Z,1008.4
2017-12-06T03:17:57.878Z,1008.3
2017-12-06T03:18:58.538Z,1008.3
2017-12-06T03:19:59.196Z,1008.3
2017-12-06T03:20:59.857Z,1008.3
2017-12-06T03:22:00.519Z,1008.3
2017-12-06T03:23:01.177Z,1008.3
2017-12-06T03:24:01.837Z,1008.2
2017-12-06T03:25:02.534Z,1008.2
2017-12-06T03:26:03.246Z,1008.2
2017-12-06T03:27:03.905Z,1008.2
2017-12-06T03:28:04.564Z,1008.2
2017-12-06T03:29:05.224Z,1008.3
2017-12-06T03:30:05.885Z,1008.2
2017-12-06T03:31:06.636Z,1008.2
2017-12-06T03:32:07.292Z,1008.3
2017-12-06T03:33:07.987Z,1008.3
2017-12-06T03:34:08.682Z,1008.2
2017-12-06T03:35:09.344Z,1008.3
2017-12-06T03:36:10.003Z,1008.3
2017-12-06T03:37:10.662Z,1008.4
2017-12-06T03:38:11.322Z,1008.3
2017-12-06T03:39:11.981Z,1008.4
2017-12-06T03:40:12.643Z,1008.4
2017-12-06T03:41:13.305Z,1008.5
2017-12-06T03:42:14.002Z,1008.4
2017-12-06T03:43:14.663Z,1008.5
2017-12-06T03:44:15.322Z,1008.5
2017-12-06T03:45:15.983Z,1008.5
2017-12-06T03:46:16.645Z,1008.4
2017-12-06T03:47:17.305Z,1008.4
2017-12-06T03:48:17.966Z,1008.4
2017-12-06T03:49:18.626Z,1008.4
2017-12-06T03:50:19.287Z,1008.4
2017-12-06T03:51:19.950Z,1008.4
2017-12-06T03:52:20.610Z,1008.4
2017-12-06T03:53:21.306Z,1008.4
2017-12-06T03:54:21.967Z,1008.3
2017-12-06T03:55:22.664Z,1008.4
2017-12-06T03:56:23.327Z,1008.4
2017-12-06T03:57:24.011Z,1008.4
2017-12-06T03:58:24.689Z,1008.3
2017-12-06T03:59:25.350Z,1008.4
2017-12-06T04:00:26.012Z,1008.4
2017-12-06T04:01:26.674Z,1008.3
2017-12-06T04:02:27.334Z,1008.2
2017-12-06T04:03:27.995Z,1008.3
2017-12-06T04:04:28.654Z,1008.3
2017-12-06T04:05:29.316Z,1008.3
2017-12-06T04:06:29.977Z,1008.3
2017-12-06T04:07:30.641Z,1008.3
2017-12-06T04:08:31.298Z,1008.3
2017-12-06T04:09:31.957Z,1008.4
2017-12-06T04:10:32.617Z,1008.3
2017-12-06T04:11:33.280Z,1008.2
2017-12-06T04:12:33.938Z,1008.3
2017-12-06T04:13:34.598Z,1008.3
2017-12-06T04:14:35.260Z,1008.3
2017-12-06T04:15:35.920Z,1008.2
2017-12-06T04:16:36.580Z,1008.3
2017-12-06T04:17:37.238Z,1008.3
2017-12-06T04:18:37.898Z,1008.3
2017-12-06T04:19:38.559Z,1008.3
2017-12-06T04:20:39.221Z,1008.2
2017-12-06T04:21:39.918Z,1008.3
2017-12-06T04:22:40.578Z,1008.3
2017-12-06T04:23:41.239Z,1008.2
2017-12-06T04:24:41.903Z,1008.2
2017-12-06T04:25:42.562Z,1008.1
2017-12-06T04:26:43.222Z,1008.2
2017-12-06T04:27:43.882Z,1008.2
2017-12-06T04:28:44.543Z,1008.1
2017-12-06T04:29:45.202Z,1008.2
2017-12-06T04:30:45.863Z,1008.1
2017-12-06T04:31:46.524Z,1008.1
2017-12-06T04:32:47.184Z,1008.1
2017-12-06T04:33:47.843Z,1008.1
2017-12-06T04:34:48.502Z,1008.1
2017-12-06T04:35:49.218Z,1008.1
2017-12-06T04:36:49.824Z,1008.1
2017-12-06T04:37:50.484Z,1008.1
2017-12-06T04:38:51.144Z,1008.1
2017-12-06T04:39:51.803Z,1008.2
2017-12-06T04:40:52.464Z,1008.1
2017-12-06T04:41:53.125Z,1008.1
2017-12-06T04:42:53.787Z,1008.1
2017-12-06T04:43:54.445Z,1008.1
2017-12-06T04:44:55.105Z,1008.0
2017-12-06T04:45:55.765Z,1008.0
2017-12-06T04:46:56.426Z,1008.0
2017-12-06T04:47:57.085Z,1008.1
2017-12-06T04:48:57.747Z,1008.0
2017-12-06T04:49:58.407Z,1008.1
2017-12-06T04:50:59.067Z,1008.0
2017-12-06T04:51:59.728Z,1008.1
2017-12-06T04:53:00.388Z,1008.0
2017-12-06T04:54:01.049Z,1008.0
2017-12-06T04:55:01.709Z,1007.9
2017-12-06T04:56:02.369Z,1007.9
2017-12-06T04:57:03.078Z,1007.9
2017-12-06T04:58:03.739Z,1007.9
2017-12-06T04:59:04.399Z,1007.8
2017-12-06T05:00:05.061Z,1007.9
2017-12-06T05:01:05.725Z,1007.9
2017-12-06T05:02:06.433Z,1007.8
2017-12-06T05:03:07.044Z,1007.9
2017-12-06T05:04:07.705Z,1007.9
2017-12-06T05:05:08.365Z,1007.9
2017-12-06T05:06:09.025Z,1007.9
2017-12-06T05:07:09.688Z,1008.0
2017-12-06T05:08:10.345Z,1008.0
2017-12-06T05:09:11.042Z,1008.0
2017-12-06T05:10:11.704Z,1008.0
2017-12-06T05:11:12.365Z,1008.0
2017-12-06T05:12:13.026Z,1007.9
2017-12-06T05:13:13.686Z,1008.0
2017-12-06T05:14:14.349Z,1007.9
2017-12-06T05:15:15.009Z,1007.9
2017-12-06T05:16:15.669Z,1008.0
2017-12-06T05:17:16.330Z,1007.9
2017-12-06T05:18:16.990Z,1008.0
2017-12-06T05:19:17.650Z,1008.0
2017-12-06T05:20:18.351Z,1008.0
2017-12-06T05:21:19.009Z,1008.0
2017-12-06T05:22:19.671Z,1007.9
2017-12-06T05:23:20.332Z,1007.9
2017-12-06T05:24:20.993Z,1007.9
2017-12-06T05:25:21.653Z,1007.8
2017-12-06T05:26:22.313Z,1007.9
2017-12-06T05:27:22.972Z,1007.9
2017-12-06T05:28:23.632Z,1007.8
2017-12-06T05:29:24.293Z,1007.8
2017-12-06T05:30:24.953Z,1007.9
2017-12-06T05:31:25.613Z,1007.8
2017-12-06T05:32:26.273Z,1007.8
2017-12-06T05:33:26.933Z,1007.8
2017-12-06T05:34:27.593Z,1007.8
2017-12-06T05:35:28.253Z,1007.8
2017-12-06T05:36:28.912Z,1007.8
2017-12-06T05:37:29.573Z,1007.8
2017-12-06T05:38:30.269Z,1007.8
2017-12-06T05:39:30.931Z,1007.8
2017-12-06T05:40:31.593Z,1007.8
2017-12-06T05:41:32.254Z,1007.8
2017-12-06T05:42:32.915Z,1007.8
2017-12-06T05:43:33.584Z,1007.8
2017-12-06T05:44:34.236Z,1007.8
2017-12-06T05:45:34.897Z,1007.8
2017-12-06T05:46:35.558Z,1007.8
2017-12-06T05:47:36.220Z,1007.8
2017-12-06T05:48:36.881Z,1007.8
2017-12-06T05:49:37.542Z,1007.8
2017-12-06T05:50:38.202Z,1007.8
2017-12-06T05:51:38.861Z,1007.7
2017-12-06T05:52:39.523Z,1007.7
2017-12-06T05:53:40.184Z,1007.7
2017-12-06T05:54:40.882Z,1007.8
2017-12-06T05:55:41.541Z,1007.7
2017-12-06T05:56:42.203Z,1007.8
2017-12-06T05:57:42.864Z,1007.7
2017-12-06T05:58:43.524Z,1007.7
2017-12-06T05:59:44.183Z,1007.7
2017-12-06T06:00:44.841Z,1007.6
2017-12-06T06:01:45.503Z,1007.6
2017-12-06T06:02:46.164Z,1007.6
2017-12-06T06:03:46.824Z,1007.5
2017-12-06T06:04:47.489Z,1007.6
2017-12-06T06:05:48.146Z,1007.5
2017-12-06T06:06:48.807Z,1007.7
2017-12-06T06:07:49.499Z,1007.7
2017-12-06T06:08:50.162Z,1007.6
2017-12-06T06:09:50.823Z,1007.6
2017-12-06T06:10:51.484Z,1007.6
2017-12-06T06:11:52.144Z,1007.6
2017-12-06T06:12:52.805Z,1007.6
2017-12-06T06:13:53.466Z,1007.5
2017-12-06T06:14:54.126Z,1007.6
2017-12-06T06:15:54.786Z,1007.6
2017-12-06T06:16:55.485Z,1007.6
2017-12-06T06:17:56.108Z,1007.6
2017-12-06T06:18:56.803Z,1007.6
2017-12-06T06:19:57.463Z,1007.6
2017-12-06T06:20:58.125Z,1007.7
2017-12-06T06:21:58.787Z,1007.6
2017-12-06T06:22:59.447Z,1007.6
2017-12-06T06:24:00.108Z,1007.5
2017-12-06T06:25:00.769Z,1007.6
2017-12-06T06:26:01.427Z,1007.6
2017-12-06T06:27:02.088Z,1007.6
2017-12-06T06:28:02.748Z,1007.6
2017-12-06T06:29:03.408Z,1007.6
2017-12-06T06:30:04.068Z,1007.6
2017-12-06T06:31:04.729Z,1007.6
2017-12-06T06:32:05.427Z,1007.6
2017-12-06T06:33:06.089Z,1007.6
2017-12-06T06:34:06.751Z,1007.6
2017-12-06T06:35:07.410Z,1007.5
2017-12-06T06:36:08.070Z,1007.6
2017-12-06T06:37:08.731Z,1007.5
2017-12-06T06:38:09.391Z,1007.5
2017-12-06T06:39:10.053Z,1007.6
2017-12-06T06:40:10.712Z,1007.6
2017-12-06T06:41:11.374Z,1007.6
2017-12-06T06:42:12.035Z,1007.6
2017-12-06T06:43:12.695Z,1007.6
2017-12-06T06:44:13.355Z,1007.5
2017-12-06T06:45:14.015Z,1007.5
2017-12-06T06:46:14.676Z,1007.6
2017-12-06T06:47:15.336Z,1007.5
2017-12-06T06:48:15.996Z,1007.5
2017-12-06T06:49:16.664Z,1007.5
2017-12-06T06:50:17.357Z,1007.6
2017-12-06T06:51:18.020Z,1007.5
2017-12-06T06:52:18.680Z,1007.6
2017-12-06T06:53:19.386Z,1007.6
2017-12-06T06:54:20.003Z,1007.6
2017-12-06T06:55:20.664Z,1007.6
2017-12-06T06:56:21.325Z,1007.5
2017-12-06T06:57:21.986Z,1007.5
2017-12-06T06:58:22.649Z,1007.5
2017-12-06T06:59:23.312Z,1007.5
2017-12-06T07:00:23.975Z,1007.5
2017-12-06T07:01:24.637Z,1007.5
2017-12-06T07:02:25.299Z,1007.5
2017-12-06T07:03:25.962Z,1007.5
2017-12-06T07:04:26.622Z,1007.5
2017-12-06T07:05:27.285Z,1007.5
2017-12-06T07:06:27.945Z,1007.6
2017-12-06T07:07:28.607Z,1007.6
2017-12-06T07:08:29.268Z,1007.6
2017-12-06T07:09:29.929Z,1007.6
2017-12-06T07:10:30.594Z,1007.7
2017-12-06T07:11:31.254Z,1007.7
2017-12-06T07:12:31.916Z,1007.7
2017-12-06T07:13:32.579Z,1007.7
2017-12-06T07:14:33.240Z,1007.8
2017-12-06T07:15:33.902Z,1007.8
2017-12-06T07:16:34.600Z,1007.7
2017-12-06T07:17:35.263Z,1007.8
2017-12-06T07:18:35.925Z,1007.8
2017-12-06T07:19:36.587Z,1007.8
2017-12-06T07:20:37.249Z,1007.7
2017-12-06T07:21:37.911Z,1007.7
2017-12-06T07:22:38.573Z,1007.7
2017-12-06T07:23:39.235Z,1007.8
2017-12-06T07:24:39.899Z,1007.8
2017-12-06T07:25:40.565Z,1007.8
2017-12-06T07:26:41.268Z,1007.9
2017-12-06T07:27:41.893Z,1007.9
2017-12-06T07:28:42.557Z,1007.8
2017-12-06T07:29:43.217Z,1007.9
2017-12-06T07:30:43.879Z,1007.8
2017-12-06T07:31:44.542Z,1007.9
2017-12-06T07:32:45.205Z,1007.9
2017-12-06T07:33:45.954Z,1007.9
2017-12-06T07:34:46.616Z,1007.9
2017-12-06T07:35:47.278Z,1007.9
2017-12-06T07:36:47.940Z,1008.0
2017-12-06T07:37:48.604Z,1007.9
2017-12-06T07:38:49.267Z,1007.9
2017-12-06T07:39:49.930Z,1008.0
2017-12-06T07:40:50.593Z,1008.0
2017-12-06T07:41:51.257Z,1008.0
2017-12-06T07:42:51.919Z,1007.9
2017-12-06T07:43:52.582Z,1008.0
2017-12-06T07:44:53.243Z,1008.0
2017-12-06T07:45:53.905Z,1008.0
2017-12-06T07:46:54.568Z,1008.0
2017-12-06T07:47:55.231Z,1008.1
2017-12-06T07:48:55.893Z,1008.0
2017-12-06T07:49:56.557Z,1008.0
2017-12-06T07:50:57.220Z,1008.0
2017-12-06T07:51:57.883Z,1008.0
2017-12-06T07:52:58.546Z,1008.0
2017-12-06T07:53:59.243Z,1008.1
2017-12-06T07:54:59.905Z,1008.0
2017-12-06T07:56:00.567Z,1008.1
2017-12-06T07:57:01.230Z,1008.0
2017-12-06T07:58:01.930Z,1008.1
2017-12-06T07:59:02.592Z,1008.1
2017-12-06T08:00:03.278Z,1008.1
2017-12-06T08:01:03.917Z,1008.1
2017-12-06T08:02:04.580Z,1008.1
2017-12-06T08:03:05.242Z,1008.1
2017-12-06T08:04:05.907Z,1008.1
2017-12-06T08:05:06.575Z,1008.2
2017-12-06T08:06:07.275Z,1008.1
2017-12-06T08:07:07.938Z,1008.1
2017-12-06T08:08:08.603Z,1008.1
2017-12-06T08:09:09.267Z,1008.1
2017-12-06T08:10:09.932Z,1008.1
2017-12-06T08:11:10.597Z,1008.1
2017-12-06T08:12:11.260Z,1008.2
2017-12-06T08:13:11.964Z,1008.1
2017-12-06T08:14:12.661Z,1008.1
2017-12-06T08:15:13.326Z,1008.1
2017-12-06T08:16:13.989Z,1008.1
2017-12-06T08:17:14.653Z,1008.0
2017-12-06T08:18:15.355Z,1008.1
2017-12-06T08:19:16.018Z,1008.0
2017-12-06T08:20:16.682Z,1008.1
2017-12-06T08:21:17.382Z,1008.1
2017-12-06T08:22:18.049Z,1008.1
2017-12-06T08:23:18.714Z,1008.1
2017-12-06T08:24:19.377Z,1008.1
2017-12-06T08:25:20.041Z,1008.1
2017-12-06T08:26:20.705Z,1008.1
2017-12-06T08:27:21.370Z,1008.2
2017-12-06T08:28:22.034Z,1008.1
2017-12-06T08:29:22.697Z,1008.1
2017-12-06T08:30:23.361Z,1008.2
2017-12-06T08:31:24.024Z,1008.2
2017-12-06T08:32:24.688Z,1008.2
2017-12-06T08:33:25.354Z,1008.1
2017-12-06T08:34:26.022Z,1008.2
2017-12-06T08:35:26.722Z,1008.2
2017-12-06T08:36:27.388Z,1008.1
2017-12-06T08:37:28.087Z,1008.2
2017-12-06T08:38:28.751Z,1008.2
2017-12-06T08:39:29.414Z,1008.2
2017-12-06T08:40:30.080Z,1008.2
2017-12-06T08:41:30.744Z,1008.2
2017-12-06T08:42:31.407Z,1008.2
2017-12-06T08:43:32.071Z,1008.1
2017-12-06T08:44:32.733Z,1008.2
2017-12-06T08:45:33.396Z,1008.2
2017-12-06T08:46:34.060Z,1008.1
2017-12-06T08:47:34.728Z,1008.1
2017-12-06T08:48:35.391Z,1008.1
2017-12-06T08:49:36.057Z,1008.0
2017-12-06T08:50:36.755Z,1008.1
2017-12-06T08:51:37.418Z,1008.0
2017-12-06T08:52:38.082Z,1008.1
2017-12-06T08:53:38.746Z,1008.0
2017-12-06T08:54:39.412Z,1008.1
2017-12-06T08:55:40.075Z,1008.1
2017-12-06T08:56:40.738Z,1008.1
2017-12-06T08:57:41.402Z,1008.1
2017-12-06T08:58:42.065Z,1008.1
2017-12-06T08:59:42.730Z,1008.1
2017-12-06T09:00:43.395Z,1008.0
2017-12-06T09:01:44.062Z,1008.0
2017-12-06T09:02:44.726Z,1008.0
2017-12-06T09:03:45.391Z,1008.1
2017-12-06T09:04:46.056Z,1008.1
2017-12-06T09:05:46.721Z,1008.0
2017-12-06T09:06:47.385Z,1008.0
2017-12-06T09:07:48.049Z,1008.0
2017-12-06T09:08:48.714Z,1008.0
2017-12-06T09:09:49.381Z,1008.1
2017-12-06T09:10:50.084Z,1008.1
2017-12-06T09:11:50.750Z,1008.1
2017-12-06T09:12:51.414Z,1008.1
2017-12-06T09:13:52.078Z,1008.1
2017-12-06T09:14:52.744Z,1008.1
2017-12-06T09:15:53.407Z,1008.1
2017-12-06T09:16:54.070Z,1008.1
2017-12-06T09:17:54.735Z,1008.0
2017-12-06T09:18:55.401Z,1008.0
2017-12-06T09:19:56.065Z,1008.0
2017-12-06T09:20:56.731Z,1008.0
2017-12-06T09:21:57.396Z,1008.1
2017-12-06T09:22:58.061Z,1008.1
2017-12-06T09:23:58.725Z,1008.0
2017-12-06T09:24:59.390Z,1008.0
2017-12-06T09:26:00.056Z,1008.1
2017-12-06T09:27:00.721Z,1008.0
2017-12-06T09:28:01.386Z,1008.0
2017-12-06T09:29:02.051Z,1008.0
2017-12-06T09:30:02.716Z,1008.0
2017-12-06T09:31:03.382Z,1008.0
2017-12-06T09:32:04.049Z,1007.9
2017-12-06T09:33:04.712Z,1008.0
2017-12-06T09:34:05.378Z,1008.0
2017-12-06T09:35:06.044Z,1008.0
2017-12-06T09:36:06.707Z,1008.0
2017-12-06T09:37:07.374Z,1008.1
2017-12-06T09:38:08.040Z,1008.0
2017-12-06T09:39:08.709Z,1008.0
2017-12-06T09:40:09.374Z,1008.1
2017-12-06T09:41:10.038Z,1008.0
2017-12-06T09:42:10.705Z,1008.0
2017-12-06T09:43:11.370Z,1008.1
2017-12-06T09:44:12.035Z,1008.0
2017-12-06T09:45:12.699Z,1008.0
2017-12-06T09:46:13.364Z,1008.0
2017-12-06T09:47:14.032Z,1008.0
2017-12-06T09:48:14.704Z,1007.9
2017-12-06T09:49:15.362Z,1008.0
2017-12-06T09:50:16.076Z,1007.9
2017-12-06T09:51:16.742Z,1008.0
2017-12-06T09:52:17.441Z,1007.9
2017-12-06T09:53:18.106Z,1007.9
2017-12-06T09:54:18.773Z,1007.9
2017-12-06T09:55:19.439Z,1007.9
2017-12-06T09:56:20.107Z,1007.9
2017-12-06T09:57:20.772Z,1007.9
2017-12-06T09:58:21.437Z,1007.8
2017-12-06T09:59:22.103Z,1007.8
2017-12-06T10:00:22.770Z,1007.8
2017-12-06T10:01:23.434Z,1007.8
2017-12-06T10:02:24.135Z,1007.8
2017-12-06T10:03:24.802Z,1007.9
2017-12-06T10:04:25.466Z,1007.8
2017-12-06T10:05:26.168Z,1007.8
2017-12-06T10:06:26.835Z,1007.8
2017-12-06T10:07:27.501Z,1007.8
2017-12-06T10:08:28.187Z,1007.8
2017-12-06T10:09:28.832Z,1007.7
2017-12-06T10:10:29.534Z,1007.8
2017-12-06T10:11:30.200Z,1007.7
2017-12-06T10:12:30.866Z,1007.7
2017-12-06T10:13:31.531Z,1007.7
2017-12-06T10:14:32.195Z,1007.7
2017-12-06T10:15:32.860Z,1007.7
2017-12-06T10:16:33.526Z,1007.6
2017-12-06T10:17:34.193Z,1007.7
2017-12-06T10:18:34.860Z,1007.7
2017-12-06T10:19:35.525Z,1007.7
2017-12-06T10:20:36.192Z,1007.8
2017-12-06T10:21:36.859Z,1007.7
2017-12-06T10:22:37.524Z,1007.6
2017-12-06T10:23:38.190Z,1007.6
2017-12-06T10:24:38.857Z,1007.7
2017-12-06T10:25:39.525Z,1007.6
2017-12-06T10:26:40.191Z,1007.6
2017-12-06T10:27:40.891Z,1007.5
2017-12-06T10:28:41.557Z,1007.6
2017-12-06T10:29:42.222Z,1007.5
2017-12-06T10:30:42.889Z,1007.5
2017-12-06T10:31:43.554Z,1007.5
2017-12-06T10:32:44.219Z,1007.5
2017-12-06T10:33:44.888Z,1007.6
2017-12-06T10:34:45.550Z,1007.5
2017-12-06T10:35:46.218Z,1007.6
2017-12-06T10:36:46.882Z,1007.6
2017-12-06T10:37:47.550Z,1007.6
2017-12-06T10:38:48.216Z,1007.6
2017-12-06T10:39:48.881Z,1007.6
2017-12-06T10:40:49.546Z,1007.6
2017-12-06T10:41:50.210Z,1007.7
2017-12-06T10:42:50.875Z,1007.6
2017-12-06T10:43:51.544Z,1007.7
2017-12-06T10:44:52.210Z,1007.7
2017-12-06T10:45:52.876Z,1007.6
2017-12-06T10:46:53.542Z,1007.7
2017-12-06T10:47:54.207Z,1007.7
2017-12-06T10:48:54.873Z,1007.6
2017-12-06T10:49:55.539Z,1007.7
2017-12-06T10:50:56.204Z,1007.6
2017-12-06T10:51:56.872Z,1007.6
2017-12-06T10:52:57.576Z,1007.6
2017-12-06T10:53:58.244Z,1007.6
2017-12-06T10:54:58.909Z,1007.5
2017-12-06T10:55:59.575Z,1007.6
2017-12-06T10:57:00.241Z,1007.4
2017-12-06T10:58:00.907Z,1007.5
2017-12-06T10:59:01.571Z,1007.5
2017-12-06T11:00:02.235Z,1007.4
2017-12-06T11:01:02.902Z,1007.4
2017-12-06T11:02:03.568Z,1007.5
2017-12-06T11:03:04.235Z,1007.4
2017-12-06T11:04:04.900Z,1007.5
2017-12-06T11:05:05.567Z,1007.5
2017-12-06T11:06:06.232Z,1007.4
2017-12-06T11:07:06.897Z,1007.5
2017-12-06T11:08:07.563Z,1007.4
2017-12-06T11:09:08.227Z,1007.4
2017-12-06T11:10:08.892Z,1007.5
2017-12-06T11:11:09.560Z,1007.3
2017-12-06T11:12:10.236Z,1007.4
2017-12-06T11:13:10.931Z,1007.3
2017-12-06T11:14:11.595Z,1007.3
2017-12-06T11:15:12.263Z,1007.3
2017-12-06T11:16:12.982Z,1007.4
2017-12-06T11:17:13.645Z,1007.3
2017-12-06T11:18:14.312Z,1007.3
2017-12-06T11:19:14.980Z,1007.5
2017-12-06T11:20:15.645Z,1007.3
2017-12-06T11:21:16.315Z,1007.3
2017-12-06T11:22:16.978Z,1007.3
2017-12-06T11:23:17.680Z,1007.3
2017-12-06T11:24:18.383Z,1007.3
2017-12-06T11:25:19.057Z,1007.2
2017-12-06T11:26:19.755Z,1007.3
2017-12-06T11:27:20.419Z,1007.3
2017-12-06T11:28:21.121Z,1007.3
2017-12-06T11:29:21.787Z,1007.3
2017-12-06T11:30:22.450Z,1007.3
2017-12-06T11:31:23.120Z,1007.2
2017-12-06T11:32:23.787Z,1007.3
2017-12-06T11:33:24.452Z,1007.2
2017-12-06T11:34:25.120Z,1007.2
2017-12-06T11:35:25.786Z,1007.2
2017-12-06T11:36:26.501Z,1007.3
2017-12-06T11:37:27.169Z,1007.3
2017-12-06T11:38:27.836Z,1007.3
2017-12-06T11:39:28.501Z,1007.2
2017-12-06T11:40:29.204Z,1007.2
2017-12-06T11:41:29.868Z,1007.2
2017-12-06T11:42:30.535Z,1007.2
2017-12-06T11:43:31.201Z,1007.3
2017-12-06T11:44:31.867Z,1007.3
2017-12-06T11:45:32.531Z,1007.2
2017-12-06T11:46:33.247Z,1007.2
2017-12-06T11:47:33.916Z,1007.2
2017-12-06T11:48:34.582Z,1007.3
2017-12-06T11:49:35.248Z,1007.3
2017-12-06T11:50:35.914Z,1007.3
2017-12-06T11:51:36.579Z,1007.2
2017-12-06T11:52:37.248Z,1007.2
2017-12-06T11:53:37.949Z,1007.3
2017-12-06T11:54:38.614Z,1007.3
2017-12-06T11:55:39.281Z,1007.2
2017-12-06T11:56:39.950Z,1007.2
2017-12-06T11:57:40.613Z,1007.2
2017-12-06T11:58:41.280Z,1007.2
2017-12-06T11:59:41.982Z,1007.2
2017-12-06T12:00:42.647Z,1007.2
2017-12-06T12:01:43.313Z,1007.2
2017-12-06T12:02:43.978Z,1007.2
2017-12-06T12:03:44.645Z,1007.1
2017-12-06T12:04:45.308Z,1007.1
2017-12-06T12:05:45.977Z,1007.3
2017-12-06T12:06:46.730Z,1007.2
2017-12-06T12:07:47.395Z,1007.2
2017-12-06T12:08:48.064Z,1007.2
2017-12-06T12:09:48.730Z,1007.2
2017-12-06T12:10:49.396Z,1007.1
2017-12-06T12:11:50.061Z,1007.2
2017-12-06T12:12:50.728Z,1007.2
2017-12-06T12:13:51.395Z,1007.2
2017-12-06T12:14:52.068Z,1007.2
2017-12-06T12:15:52.728Z,1007.2
2017-12-06T12:16:53.394Z,1007.1
2017-12-06T12:17:54.060Z,1007.1
2017-12-06T12:18:54.727Z,1007.2
2017-12-06T12:19:55.392Z,1007.1
2017-12-06T12:20:56.059Z,1007.2
2017-12-06T12:21:56.778Z,1007.1
2017-12-06T12:22:57.445Z,1007.1
2017-12-06T12:23:58.113Z,1007.2
2017-12-06T12:24:58.778Z,1007.1
2017-12-06T12:25:59.444Z,1007.2
2017-12-06T12:27:00.110Z,1007.2
2017-12-06T12:28:00.778Z,1007.2
2017-12-06T12:29:01.444Z,1007.2
2017-12-06T12:30:02.110Z,1007.2
2017-12-06T12:31:02.777Z,1007.2
2017-12-06T12:32:03.445Z,1007.2
2017-12-06T12:33:04.107Z,1007.2
2017-12-06T12:34:04.804Z,1007.2
2017-12-06T12:35:05.439Z,1007.1
2017-12-06T12:36:06.106Z,1007.0
2017-12-06T12:37:06.774Z,1007.2
2017-12-06T12:38:07.440Z,1007.2
2017-12-06T12:39:08.107Z,1007.1